Terminal Aerodrome Forecast
Issued by NWS

Home | Current Version | Previous Version | Text Only | Print | Product List | Glossary Off
Versions: 1 2 3 4 5 6 7 8 9 10 11 12 13 14 15 16 17 18 19 20 21 22 23 24 25 26 27

000
FTUS43 KLOT 280527
TAFMDW
TAF
KMDW 280527Z 2806/2906 32004KT P6SM SCT040 BKN250
     FM281000 VRB03KT 5SM BR FEW005 SCT250
     FM281500 07007KT P6SM SCT025 SCT250
     FM290300 08003KT P6SM SCT250=

USA.gov is the U.S. government's official web portal to all federal, state and local government web resources and services.